Time;durP1;ratioP1;P1;durP2;ratioP2;P2;SDS_P1;SDS_P2;PMS_P1;PMS_P2;Temp;Humidity;BMP_temperature;BMP_pressure;BME280_temperature;BME280_humidity;BME280_pressure;Samples;Min_cycle;Max_cycle;Signal;HPM_P1;HPM_P2
2022/03/02 00:02:02;;;;;;;53.90;34.00;;;;;;;;;;5010991;28;20030;-77
2022/03/02 00:04:28;;;;;;;56.47;33.85;;;;;;;;;;5012393;28;20018;-78
2022/03/02 00:06:54;;;;;;;56.05;34.50;;;;;;;;;;5011107;28;20049;-79
2022/03/02 00:09:20;;;;;;;54.33;31.27;;;;;;;;;;5011539;28;20067;-77
2022/03/02 00:11:46;;;;;;;57.22;35.72;;;;;;;;;;5012077;28;20021;-80
2022/03/02 00:14:12;;;;;;;45.03;26.65;;;;;;;;;;5012457;28;20112;-78
2022/03/02 00:16:38;;;;;;;47.30;30.20;;;;;;;;;;5014145;28;20033;-78
2022/03/02 00:19:04;;;;;;;51.25;36.03;;;;;;;;;;5012784;28;20038;-77
2022/03/02 00:21:31;;;;;;;53.22;33.67;;;;;;;;;;5012779;28;20032;-78
2022/03/02 00:23:57;;;;;;;55.08;34.90;;;;;;;;;;5012211;28;20088;-78
2022/03/02 00:26:23;;;;;;;55.55;34.60;;;;;;;;;;5012577;28;20022;-77
2022/03/02 00:28:50;;;;;;;53.97;30.98;;;;;;;;;;5012303;28;20026;-77
2022/03/02 00:31:16;;;;;;;52.47;33.60;;;;;;;;;;5010665;28;20021;-78
2022/03/02 00:33:42;;;;;;;57.50;35.38;;;;;;;;;;5011768;28;20549;-77
2022/03/02 00:36:08;;;;;;;59.90;35.58;;;26.50;2201.60;;;;;;5012028;28;20477;-80
2022/03/02 00:38:34;;;;;;;62.03;39.08;;;26.40;2201.60;;;;;;5010817;28;20040;-75
2022/03/02 00:40:59;;;;;;;58.38;35.47;;;26.30;2201.60;;;;;;5010927;28;20054;-78
2022/03/02 00:43:26;;;;;;;59.83;37.05;;;26.20;2201.60;;;;;;5014147;28;20097;-79
2022/03/02 00:45:52;;;;;;;60.10;33.35;;;26.20;2201.60;;;;;;5013632;28;20056;-77
2022/03/02 00:48:18;;;;;;;57.00;33.30;;;26.20;2201.60;;;;;;5013318;28;20026;-77
2022/03/02 00:50:44;;;;;;;54.72;27.92;;;;;;;;;;5015544;28;20057;-76
2022/03/02 00:53:10;;;;;;;59.83;33.55;;;26.30;2201.60;;;;;;5012002;28;20022;-77
2022/03/02 00:55:37;;;;;;;57.08;36.47;;;26.10;2201.60;;;;;;5012029;28;20022;-77
2022/03/02 00:58:04;;;;;;;59.95;37.75;;;26.10;2201.60;;;;;;5012067;28;20413;-80
2022/03/02 01:00:30;;;;;;;61.58;36.30;;;26.10;2201.60;;;;;;5014952;28;20042;-76
2022/03/02 01:02:56;;;;;;;55.13;34.70;;;26.00;2201.60;;;;;;5015569;28;20079;-77
2022/03/02 01:05:22;;;;;;;48.10;26.02;;;25.90;2201.60;;;;;;5014680;28;20050;-77
2022/03/02 01:07:48;;;;;;;55.60;33.70;;;25.70;2201.60;;;;;;5015754;28;20030;-76
2022/03/02 01:10:15;;;;;;;65.55;35.97;;;25.70;2201.60;;;;;;5015549;28;20026;-77
2022/03/02 01:12:42;;;;;;;63.63;36.28;;;25.70;2201.60;;;;;;5015473;28;20388;-77
2022/03/02 01:15:09;;;;;;;73.20;41.45;;;25.70;2201.60;;;;;;5015768;28;20044;-77
2022/03/02 01:17:35;;;;;;;63.25;38.58;;;25.70;2201.60;;;;;;5014266;28;20064;-76
2022/03/02 01:20:03;;;;;;;67.85;39.10;;;25.80;2201.60;;;;;;5013918;28;20045;-77
2022/03/02 01:22:28;;;;;;;64.47;36.08;;;25.80;2201.60;;;;;;5013740;28;20493;-78
2022/03/02 01:24:55;;;;;;;56.80;34.88;;;25.80;2201.60;;;;;;5015245;28;20053;-77
2022/03/02 01:27:22;;;;;;;52.13;31.38;;;25.80;2201.60;;;;;;5014240;28;20034;-76
2022/03/02 01:29:48;;;;;;;56.88;35.05;;;25.70;2201.60;;;;;;5014162;28;20072;-76
2022/03/02 01:32:14;;;;;;;64.03;40.08;;;25.80;2201.60;;;;;;5014559;28;20026;-76
2022/03/02 01:34:39;;;;;;;62.17;37.63;;;25.80;2201.60;;;;;;5014095;28;20062;-75
2022/03/02 01:37:05;;;;;;;61.83;37.55;;;25.80;2201.60;;;;;;5014748;28;20478;-78
2022/03/02 01:39:31;;;;;;;60.88;36.72;;;25.70;2201.60;;;;;;5015112;28;20042;-75
2022/03/02 01:41:57;;;;;;;53.28;34.03;;;25.70;2201.60;;;;;;5015169;28;20034;-77
2022/03/02 01:44:23;;;;;;;60.67;37.00;;;25.80;2201.60;;;;;;5013319;28;20054;-75
2022/03/02 01:46:49;;;;;;;62.70;35.67;;;25.80;2201.60;;;;;;5014278;28;20030;-77
2022/03/02 01:49:14;;;;;;;56.08;36.65;;;25.70;2201.60;;;;;;5014925;28;20083;-78
2022/03/02 01:51:40;;;;;;;57.75;33.90;;;25.80;2201.60;;;;;;5014457;28;20037;-78
2022/03/02 01:54:07;;;;;;;59.30;37.50;;;25.70;2201.60;;;;;;5014880;28;20108;-76
2022/03/02 01:56:34;;;;;;;63.90;38.10;;;25.70;2201.60;;;;;;5013404;28;20022;-79
2022/03/02 01:59:00;;;;;;;59.92;36.03;;;25.70;2201.60;;;;;;5014727;28;20038;-76
2022/03/02 02:01:26;;;;;;;59.50;37.72;;;25.70;2201.60;;;;;;5014801;28;20033;-76
2022/03/02 02:03:52;;;;;;;63.85;40.72;;;25.80;2201.60;;;;;;5013413;28;20378;-77
2022/03/02 02:06:18;;;;;;;65.60;41.03;;;25.90;2201.60;;;;;;5012877;28;20045;-77
2022/03/02 02:08:44;;;;;;;67.93;39.85;;;25.80;2201.60;;;;;;5013335;28;20022;-78
2022/03/02 02:11:12;;;;;;;64.32;39.03;;;25.90;2201.60;;;;;;5012072;28;20115;-78
2022/03/02 02:13:38;;;;;;;53.28;31.88;;;26.00;2201.60;;;;;;5014200;28;20493;-77
2022/03/02 02:16:05;;;;;;;65.20;39.90;;;26.00;2201.60;;;;;;5014538;28;20026;-77
2022/03/02 02:18:32;;;;;;;66.50;40.83;;;26.10;2201.60;;;;;;5014095;28;20038;-77
2022/03/02 02:21:05;;;;;;;70.93;42.40;;;26.10;2201.60;;;;;;5012863;28;20040;-77
2022/03/02 02:23:31;;;;;;;;;;;26.20;2201.60;;;;;;5013382;28;21116;-77
2022/03/02 02:25:57;;;;;;;65.75;40.95;;;26.20;2201.60;;;;;;5013007;28;19905;-77
2022/03/02 02:28:25;;;;;;;57.83;38.42;;;26.30;2201.60;;;;;;5014605;28;20030;-78
2022/03/02 02:30:54;;;;;;;59.25;36.83;;;26.20;2201.60;;;;;;5012150;28;20030;-77
2022/03/02 02:33:21;;;;;;;52.95;36.85;;;26.30;2201.60;;;;;;5012754;28;20029;-77
2022/03/02 02:35:47;;;;;;;55.25;36.35;;;26.30;2201.60;;;;;;5013578;28;20445;-78
2022/03/02 02:38:13;;;;;;;45.45;27.30;;;26.40;2201.60;;;;;;5013694;28;20029;-78
2022/03/02 02:40:39;;;;;;;60.15;33.83;;;26.40;2201.60;;;;;;5013762;28;20053;-78
2022/03/02 02:43:06;;;;;;;54.50;34.45;;;26.40;2201.60;;;;;;5014065;28;20212;-78
2022/03/02 02:45:32;;;;;;;50.17;31.35;;;26.40;2201.60;;;;;;5013452;28;20473;-77
2022/03/02 02:47:58;;;;;;;48.58;31.25;;;26.40;2201.60;;;;;;5013542;28;20152;-77
2022/03/02 02:50:29;;;;;;;62.65;35.67;;;26.40;2201.60;;;;;;5012249;28;20088;-77
2022/03/02 02:52:57;;;;;;;54.47;33.30;;;26.50;2201.60;;;;;;5012509;28;20025;-77
2022/03/02 02:55:27;;;;;;;53.05;32.35;;;26.40;2201.60;;;;;;5013078;28;20129;-77
2022/03/02 02:57:54;;;;;;;58.75;36.55;;;26.50;2201.60;;;;;;5013676;28;20075;-78
2022/03/02 03:00:21;;;;;;;54.92;33.78;;;26.50;2201.60;;;;;;5012015;28;20046;-77
2022/03/02 03:02:50;;;;;;;61.53;36.47;;;26.50;2201.60;;;;;;5012157;28;20119;-78
2022/03/02 03:05:18;;;;;;;54.42;35.20;;;26.40;2201.60;;;;;;5012767;28;20028;-78
2022/03/02 03:07:45;;;;;;;54.35;33.97;;;26.40;2201.60;;;;;;5012196;28;20049;-78
2022/03/02 03:10:11;;;;;;;60.40;34.40;;;26.40;2201.60;;;;;;5013286;28;20485;-78
2022/03/02 03:12:38;;;;;;;54.30;33.15;;;26.40;2201.60;;;;;;5013343;28;20037;-79
2022/03/02 03:15:06;;;;;;;54.47;33.67;;;26.50;2201.60;;;;;;5011898;28;20026;-78
2022/03/02 03:17:32;;;;;;;55.63;32.25;;;26.50;2201.60;;;;;;5010957;28;20433;-77
2022/03/02 03:19:58;;;;;;;56.25;34.05;;;26.50;2201.60;;;;;;5012923;28;20543;-78
2022/03/02 03:22:24;;;;;;;53.33;32.63;;;51.20;2227.20;;;;;;5011332;28;20061;-78
2022/03/02 03:24:50;;;;;;;53.10;30.60;;;51.20;2227.20;;;;;;5012108;28;20102;-81
2022/03/02 03:27:16;;;;;;;47.70;31.75;;;51.20;2227.20;;;;;;5012601;28;20017;-78
2022/03/02 03:29:42;;;;;;;50.38;30.02;;;51.20;2227.20;;;;;;5012784;28;20138;-78
2022/03/02 03:32:08;;;;;;;46.08;32.47;;;51.20;2227.20;;;;;;5011265;28;20465;-79
2022/03/02 03:34:34;;;;;;;43.13;28.15;;;51.20;2227.20;;;;;;5012794;28;20124;-78
2022/03/02 03:37:00;;;;;;;50.10;32.50;;;51.20;2227.20;;;;;;5012792;28;20108;-78
2022/03/02 03:39:26;;;;;;;49.80;31.52;;;51.20;2227.20;;;;;;5012745;28;20544;-79
2022/03/02 03:41:52;;;;;;;50.47;31.05;;;51.20;2227.20;;;;;;5012903;28;20117;-78
2022/03/02 03:44:18;;;;;;;52.63;33.00;;;51.20;2227.20;;;;;;5012758;28;20104;-78
2022/03/02 03:46:43;;;;;;;46.65;28.50;;;51.20;2227.20;;;;;;5011017;28;20432;-79
2022/03/02 03:49:09;;;;;;;54.60;33.22;;;51.20;2227.20;;;;;;5012069;28;20029;-77
2022/03/02 03:51:35;;;;;;;52.40;31.80;;;51.20;2227.20;;;;;;5012800;28;20030;-78
2022/03/02 03:54:01;;;;;;;50.88;33.08;;;51.20;2227.20;;;;;;5011512;28;20022;-78
2022/03/02 03:56:30;;;;;;;46.25;30.75;;;51.20;2227.20;;;;;;5012861;28;20112;-78
2022/03/02 03:58:58;;;;;;;52.85;32.53;;;51.30;2227.20;;;;;;5012319;28;20034;-82
2022/03/02 04:01:24;;;;;;;52.22;33.28;;;51.30;2227.20;;;;;;5011493;28;20030;-78
2022/03/02 04:03:50;;;;;;;60.85;36.95;;;51.30;2227.20;;;;;;5010901;28;20488;-81
2022/03/02 04:06:16;;;;;;;47.15;29.23;;;51.20;2227.20;;;;;;5017242;28;20210;-82
2022/03/02 04:08:42;;;;;;;60.75;35.28;;;51.20;2227.20;;;;;;5011172;28;20398;-79
2022/03/02 04:11:09;;;;;;;51.22;31.08;;;51.20;2227.20;;;;;;5011433;28;20046;-82
2022/03/02 04:13:35;;;;;;;46.97;29.50;;;51.20;2227.20;;;;;;5011207;28;20028;-78
2022/03/02 04:16:01;;;;;;;51.50;31.08;;;51.20;2227.20;;;;;;5011122;28;20484;-78
2022/03/02 04:18:27;;;;;;;48.00;30.15;;;51.20;2227.20;;;;;;5010481;28;20071;-78
2022/03/02 04:20:52;;;;;;;55.22;33.38;;;51.30;2227.20;;;;;;5012045;28;20050;-78
2022/03/02 04:23:19;;;;;;;51.72;31.20;;;51.20;2227.20;;;;;;5011730;28;20084;-78
2022/03/02 04:25:45;;;;;;;46.88;29.75;;;51.20;2227.20;;;;;;5012095;28;20033;-80
2022/03/02 04:28:11;;;;;;;49.35;31.83;;;26.50;2201.60;;;;;;5012038;28;20034;-80
2022/03/02 04:30:37;;;;;;;55.67;34.38;;;26.40;2201.60;;;;;;5010716;28;20030;-76
2022/03/02 04:33:03;;;;;;;54.00;30.83;;;26.50;2201.60;;;;;;5011436;28;20030;-77
2022/03/02 04:35:29;;;;;;;49.50;33.35;;;26.50;2201.60;;;;;;5011887;28;20037;-78
2022/03/02 04:37:55;;;;;;;55.78;35.00;;;26.50;2201.60;;;;;;5011006;28;20120;-79
2022/03/02 04:40:20;;;;;;;53.63;32.10;;;26.50;2201.60;;;;;;5011851;28;20569;-80
2022/03/02 04:42:46;;;;;;;56.15;34.22;;;51.20;2227.20;;;;;;5010910;28;20054;-80
2022/03/02 04:45:13;;;;;;;53.83;33.85;;;51.20;2227.20;;;;;;5011777;28;20029;-78
2022/03/02 04:47:39;;;;;;;54.83;34.70;;;51.20;2227.20;;;;;;5010034;28;20030;-78
2022/03/02 04:50:06;;;;;;;55.40;29.98;;;51.20;2227.20;;;;;;5011981;28;20040;-77
2022/03/02 04:52:32;;;;;;;53.50;34.03;;;51.20;2227.20;;;;;;5010801;28;20052;-78
2022/03/02 04:55:07;;;;;;;58.80;33.78;;;51.20;2227.20;;;;;;5011917;28;20487;-79
2022/03/02 04:57:42;;;;;;;51.15;31.95;;;51.20;2227.20;;;;;;5011984;28;20022;-79
2022/03/02 05:00:18;;;;;;;63.30;33.50;;;51.20;2227.20;;;;;;5010237;28;20504;-78
2022/03/02 05:02:45;;;;;;;60.60;36.20;;;51.20;2227.20;;;;;;5011586;28;20029;-80
2022/03/02 05:05:14;;;;;;;48.63;32.92;;;51.20;2227.20;;;;;;5011203;28;20409;-78
2022/03/02 05:07:41;;;;;;;59.70;36.65;;;51.20;2227.20;;;;;;5010163;28;20046;-77
2022/03/02 05:10:08;;;;;;;64.72;35.85;;;51.20;2227.20;;;;;;5010140;28;20718;-78
2022/03/02 05:12:35;;;;;;;57.95;34.38;;;26.50;2201.60;;;;;;5010160;28;20040;-78
2022/03/02 05:15:01;;;;;;;59.38;37.20;;;26.40;2201.60;;;;;;5011137;28;20022;-78
2022/03/02 05:17:27;;;;;;;72.13;39.30;;;26.40;2201.60;;;;;;5011161;28;20396;-77
2022/03/02 05:19:53;;;;;;;59.33;36.00;;;26.50;2201.60;;;;;;5011136;28;20396;-77
2022/03/02 05:22:18;;;;;;;59.10;36.13;;;51.20;2227.20;;;;;;5011758;28;20021;-77
2022/03/02 05:24:44;;;;;;;68.20;36.90;;;51.20;2227.20;;;;;;5011607;28;20366;-81
2022/03/02 05:27:10;;;;;;;64.10;34.95;;;51.30;2227.20;;;;;;5010395;28;20408;-78
2022/03/02 05:29:36;;;;;;;56.17;35.78;;;51.20;2227.20;;;;;;5011720;28;20029;-81
2022/03/02 05:32:03;;;;;;;59.65;35.22;;;51.30;2227.20;;;;;;5009929;28;20034;-78
2022/03/02 05:34:28;;;;;;;61.20;34.50;;;51.20;2227.20;;;;;;5011635;28;20097;-78
2022/03/02 05:36:54;;;;;;;73.82;39.83;;;51.20;2227.20;;;;;;5011252;28;20034;-78
2022/03/02 05:39:20;;;;;;;49.00;33.00;;;51.20;2227.20;;;;;;5010195;28;20037;-79
2022/03/02 05:41:46;;;;;;;69.80;37.67;;;51.30;2227.20;;;;;;5009792;28;20036;-77
2022/03/02 05:44:12;;;;;;;56.50;32.97;;;51.30;2227.20;;;;;;5011460;28;20369;-77
2022/03/02 05:46:38;;;;;;;66.60;35.45;;;51.30;2227.20;;;;;;5014690;28;20025;-79
2022/03/02 05:49:05;;;;;;;70.68;35.72;;;51.30;2227.20;;;;;;5015311;28;20033;-78
2022/03/02 05:51:31;;;;;;;51.53;31.27;;;51.30;2227.20;;;;;;5013091;28;20111;-78
2022/03/02 05:54:01;;;;;;;70.25;37.38;;;51.30;2227.20;;;;;;5013512;28;20157;-77
2022/03/02 05:56:27;;;;;;;68.40;36.30;;;51.40;2227.20;;;;;;5013567;28;20037;-78
2022/03/02 05:58:53;;;;;;;63.50;36.13;;;51.40;2227.20;;;;;;5014427;28;20038;-77
2022/03/02 06:01:19;;;;;;;69.97;40.03;;;51.40;2227.20;;;;;;5013050;28;20036;-78
2022/03/02 06:03:45;;;;;;;59.80;36.85;;;51.50;2227.20;;;;;;5014395;28;20022;-77
2022/03/02 06:06:12;;;;;;;67.75;39.55;;;51.50;2227.20;;;;;;5014500;28;20077;-77
2022/03/02 06:08:37;;;;;;;61.42;37.20;;;51.60;2227.20;;;;;;5012999;28;20030;-77
2022/03/02 06:11:03;;;;;;;63.00;37.67;;;51.50;2227.20;;;;;;5014444;28;20104;-77
2022/03/02 06:13:30;;;;;;;63.22;37.78;;;51.60;2227.20;;;;;;5013095;28;20436;-76
2022/03/02 06:16:00;;;;;;;65.90;39.47;;;51.60;2227.20;;;;;;5013029;28;20021;-77
2022/03/02 06:18:26;;;;;;;74.22;45.58;;;51.60;2227.20;;;;;;5012713;28;20025;-79
2022/03/02 06:20:55;;;;;;;56.33;37.75;;;51.60;2227.20;;;;;;5014560;28;20022;-77
2022/03/02 06:23:22;;;;;;;87.95;50.28;;;51.70;2227.20;;;;;;5013389;28;20030;-84
2022/03/02 06:25:48;;;;;;;77.72;46.97;;;51.70;2227.20;;;;;;5013874;28;20033;-79
2022/03/02 06:28:14;;;;;;;52.65;32.22;;;51.80;2227.20;;;;;;5012850;28;20029;-78
2022/03/02 06:30:40;;;;;;;64.95;35.67;;;51.90;2227.20;;;;;;5014480;28;20450;-80
2022/03/02 06:33:06;;;;;;;62.72;37.13;;;51.90;2227.20;;;;;;5013150;28;20026;-78
2022/03/02 06:35:32;;;;;;;77.05;39.10;;;51.80;2227.20;;;;;;5012794;28;20026;-78
2022/03/02 06:37:58;;;;;;;82.05;41.25;;;51.80;2227.20;;;;;;5013486;28;20400;-77
2022/03/02 06:40:24;;;;;;;60.15;37.85;;;51.90;2227.20;;;;;;5013595;28;20069;-80
2022/03/02 06:43:03;;;;;;;62.97;35.95;;;52.00;2227.20;;;;;;5012573;28;20022;-77
2022/03/02 06:45:48;;;;;;;76.15;40.22;;;52.00;2227.20;;;;;;5013753;28;20030;-80
2022/03/02 06:48:25;;;;;;;81.15;44.78;;;52.00;2227.20;;;;;;5014260;28;20034;-79
2022/03/02 06:50:53;;;;;;;71.88;38.35;;;52.10;2227.20;;;;;;5013473;28;20026;-79
2022/03/02 06:53:31;;;;;;;71.28;42.22;;;76.80;2227.20;;;;;;5013951;28;20049;-78
2022/03/02 06:55:59;;;;;;;78.72;47.53;;;76.80;2227.20;;;;;;5012187;28;20391;-79
2022/03/02 06:58:27;;;;;;;87.30;45.33;;;76.80;2227.20;;;;;;5013379;28;20022;-77
2022/03/02 07:00:56;;;;;;;82.55;45.60;;;76.80;2227.20;;;;;;5013627;28;20113;-77
2022/03/02 07:03:27;;;;;;;76.57;40.72;;;52.10;2227.20;;;;;;5012388;28;20141;-78
2022/03/02 07:05:54;;;;;;;64.82;37.42;;;76.80;2227.20;;;;;;5013266;28;20140;-77
2022/03/02 07:08:22;;;;;;;50.83;28.35;;;76.90;2227.20;;;;;;5012789;28;20420;-80
2022/03/02 07:10:51;;;;;;;68.70;38.30;;;76.80;2227.20;;;;;;5013242;28;20060;-78
2022/03/02 07:13:17;;;;;;;53.00;31.90;;;76.90;2227.20;;;;;;5013521;28;20022;-78
2022/03/02 07:15:43;;;;;;;59.28;32.55;;;76.90;2227.20;;;;;;5013089;28;20393;-80
2022/03/02 07:18:08;;;;;;;48.55;27.13;;;76.80;2227.20;;;;;;5012030;28;20026;-79
2022/03/02 07:20:40;;;;;;;50.78;29.83;;;52.10;2227.20;;;;;;5013189;28;20042;-77
2022/03/02 07:23:15;;;;;;;45.60;26.52;;;76.80;2227.20;;;;;;5011893;28;20129;-77
2022/03/02 07:25:42;;;;;;;44.28;26.83;;;52.10;2227.20;;;;;;5013099;28;20022;-78
2022/03/02 07:28:10;;;;;;;50.85;28.65;;;52.10;2227.20;;;;;;5011533;28;20022;-77
2022/03/02 07:30:37;;;;;;;56.75;32.40;;;76.90;2227.20;;;;;;5011777;28;20469;-77
2022/03/02 07:33:04;;;;;;;59.97;34.42;;;77.10;2227.20;;;;;;5011663;28;20064;-78
2022/03/02 07:35:35;;;;;;;52.17;30.55;;;77.10;2227.20;;;;;;5010681;28;20108;-77
2022/03/02 07:38:01;;;;;;;57.85;33.70;;;77.20;2227.20;;;;;;5010857;28;20549;-79
2022/03/02 07:40:27;;;;;;;61.70;37.15;;;77.30;2227.20;;;;;;5011513;28;20038;-81
2022/03/02 07:42:53;;;;;;;62.88;35.80;;;77.70;2227.20;;;;;;5012956;28;20030;-82
2022/03/02 07:45:19;;;;;;;57.60;35.00;;;102.40;2227.20;;;;;;5013470;28;20058;-82
2022/03/02 07:47:46;;;;;;;58.45;35.03;;;102.50;2227.20;;;;;;5012534;28;20030;-79
2022/03/02 07:50:13;;;;;;;52.08;29.23;;;102.60;2227.20;;;;;;5011770;28;20436;-83
2022/03/02 07:52:45;;;;;;;59.45;33.05;;;102.50;2227.20;;;;;;5011599;28;20121;-83
2022/03/02 07:55:10;;;;;;;64.88;34.47;;;102.70;2227.20;;;;;;5012331;28;20033;-82
2022/03/02 07:57:41;;;;;;;46.88;26.55;;;102.80;2227.20;;;;;;5011407;28;20121;-79
2022/03/02 08:00:09;;;;;;;63.15;32.60;;;102.60;2227.20;;;;;;5011077;28;20511;-78
2022/03/02 08:02:37;;;;;;;44.60;27.50;;;102.80;2227.20;;;;;;5011237;28;20030;-79
2022/03/02 08:05:04;;;;;;;56.42;30.30;;;102.40;2227.20;;;;;;5012200;28;20025;-78
2022/03/02 08:07:30;;;;;;;49.22;29.50;;;102.50;2227.20;;;;;;5009181;28;20068;-81
2022/03/02 08:09:58;;;;;;;58.35;33.20;;;102.40;2227.20;;;;;;5010503;28;20533;-87
2022/03/02 08:12:25;;;;;;;47.08;26.25;;;102.70;2227.20;;;;;;5010502;28;20022;-83
2022/03/02 08:14:52;;;;;;;52.85;28.75;;;103.00;2227.20;;;;;;5011322;28;20024;-82
2022/03/02 08:17:19;;;;;;;58.20;31.95;;;103.20;2227.20;;;;;;4997693;28;20462;-81
2022/03/02 08:19:48;;;;;;;50.15;28.38;;;103.30;2227.20;;;;;;5010896;28;20034;-81
2022/03/02 08:22:17;;;;;;;56.03;27.23;;;103.10;2227.20;;;;;;5008297;28;20053;-82
2022/03/02 08:24:53;;;;;;;42.65;26.73;;;103.00;2227.20;;;;;;5012222;28;20026;-82
2022/03/02 08:27:19;;;;;;;44.00;26.88;;;103.10;2227.20;;;;;;5010943;28;20462;-81
2022/03/02 08:29:53;;;;;;;55.45;30.15;;;103.10;2227.20;;;;;;5010480;28;20030;-83
2022/03/02 08:32:21;;;;;;;39.85;23.50;;;103.30;2227.20;;;;;;5007628;28;20388;-78
2022/03/02 08:34:48;;;;;;;50.55;28.63;;;103.20;2227.20;;;;;;4996447;28;20034;-83
2022/03/02 08:37:17;;;;;;;49.47;29.33;;;128.00;2252.80;;;;;;5010842;28;20033;-83
2022/03/02 08:39:43;;;;;;;41.30;25.45;;;103.10;2227.20;;;;;;5012227;28;20473;-83
2022/03/02 08:42:09;;;;;;;43.95;25.50;;;102.90;2227.20;;;;;;5012402;28;20029;-84
2022/03/02 08:44:35;;;;;;;54.35;29.42;;;102.90;2227.20;;;;;;5043217;28;20464;-83
2022/03/02 08:47:01;;;;;;;39.10;25.98;;;102.80;2227.20;;;;;;5012281;28;20029;-83
2022/03/02 08:49:27;;;;;;;50.25;30.25;;;102.90;2227.20;;;;;;5010943;28;20029;-82
2022/03/02 08:51:55;;;;;;;37.25;24.27;;;103.00;2227.20;;;;;;5010372;28;20030;-82
2022/03/02 08:54:23;;;;;;;33.63;21.17;;;103.30;2227.20;;;;;;5012060;28;20057;-83
2022/03/02 08:56:50;;;;;;;38.65;23.60;;;103.10;2227.20;;;;;;5009061;28;20132;-84
2022/03/02 08:59:18;;;;;;;46.95;29.65;;;128.00;2252.80;;;;;;5008509;28;20124;-84
2022/03/02 09:01:49;;;;;;;36.85;22.67;;;103.10;2227.20;;;;;;5010265;28;20530;-83
2022/03/02 09:04:16;;;;;;;40.55;23.33;;;103.00;2227.20;;;;;;4994993;28;20113;-85
2022/03/02 09:06:43;;;;;;;47.20;30.70;;;102.90;2227.20;;;;;;5010642;28;20057;-82
2022/03/02 09:09:09;;;;;;;57.67;33.33;;;103.20;2227.20;;;;;;5010586;28;20054;-84
2022/03/02 09:11:37;;;;;;;66.88;32.40;;;103.30;2227.20;;;;;;5011941;28;20071;-84
2022/03/02 09:14:03;;;;;;;46.40;27.30;;;128.00;2252.80;;;;;;5011208;28;20473;-80
2022/03/02 09:16:29;;;;;;;55.25;31.50;;;128.00;2252.80;;;;;;5011150;28;20025;-78
2022/03/02 09:18:55;;;;;;;49.83;28.55;;;128.00;2252.80;;;;;;5010738;28;20029;-78
2022/03/02 09:21:22;;;;;;;50.60;32.58;;;103.10;2227.20;;;;;;5012470;28;20022;-83
2022/03/02 09:23:48;;;;;;;61.00;34.38;;;103.30;2227.20;;;;;;5014464;28;20405;-80
2022/03/02 09:26:17;;;;;;;32.40;21.25;;;128.00;2252.80;;;;;;5013587;28;20412;-79
2022/03/02 09:28:46;;;;;;;64.85;32.75;;;128.10;2201.60;;;;;;5012936;28;20141;-84
2022/03/02 09:31:16;;;;;;;57.33;33.28;;;128.00;2252.80;;;;;;4994512;28;20117;-83
2022/03/02 09:33:48;;;;;;;44.22;23.95;;;128.00;2252.80;;;;;;4994429;28;20108;-82
2022/03/02 09:36:18;;;;;;;48.42;25.25;;;128.20;2252.80;;;;;;5008464;28;20042;-82
2022/03/02 09:38:47;;;;;;;45.28;23.73;;;128.20;2201.60;;;;;;5014796;28;20025;-82
2022/03/02 09:41:29;;;;;;;47.42;22.38;;;128.40;2048.00;;;;;;5013932;28;20096;-82
2022/03/02 09:43:57;;;;;;;30.85;17.15;;;128.40;2022.40;;;;;;5013944;28;20026;-79
2022/03/02 09:46:47;;;;;;;22.02;14.18;;;128.10;1996.80;;;;;;5015108;28;20022;-81
2022/03/02 09:49:17;;;;;;;22.35;13.95;;;128.00;1945.60;;;;;;5015110;28;20025;-85
2022/03/02 09:51:43;;;;;;;27.63;17.48;;;103.30;2099.20;;;;;;5014156;28;20061;-83
2022/03/02 09:54:09;;;;;;;16.58;10.65;;;128.30;2048.00;;;;;;5013950;28;20473;-83
2022/03/02 09:56:36;;;;;;;22.67;13.75;;;128.00;1817.60;;;;;;5015141;28;20026;-81
2022/03/02 09:59:07;;;;;;;28.90;19.90;;;128.00;1971.20;;;;;;5015182;28;20033;-81
2022/03/02 10:01:35;;;;;;;37.47;17.20;;;128.10;1971.20;;;;;;5014154;28;20385;-83
2022/03/02 10:04:22;;;;;;;23.58;10.75;;;128.10;1868.80;;;;;;5014921;28;20057;-85
2022/03/02 10:07:26;;;;;;;18.85;10.63;;;103.30;1894.40;;;;;;5014535;28;20049;-84
2022/03/02 10:09:46;;;;;;;16.45;10.82;;;103.30;1843.20;;;;;;5014301;28;20081;-83
2022/03/02 10:12:16;;;;;;;21.58;10.93;;;103.20;1817.60;;;;;;4993958;28;20482;-86
2022/03/02 10:14:42;;;;;;;25.15;13.00;;;103.30;1843.20;;;;;;5013343;28;20076;-81
2022/03/02 10:17:11;;;;;;;18.63;10.88;;;103.30;1817.60;;;;;;5012859;28;20026;-82
2022/03/02 10:19:54;;;;;;;14.57;10.18;;;103.30;1740.80;;;;;;5012416;28;20428;-79
2022/03/02 10:22:58;;;;;;;21.75;11.75;;;103.20;1715.20;;;;;;5013183;28;20125;-84
2022/03/02 10:26:01;;;;;;;23.77;12.07;;;102.80;1689.60;;;;;;5014403;28;20495;-86
2022/03/02 10:29:05;;;;;;;20.85;11.18;;;103.00;1715.20;;;;;;5014723;28;20465;-83
2022/03/02 10:32:00;;;;;;;28.95;12.32;;;103.00;1740.80;;;;;;5012175;28;21109;-85
2022/03/02 10:34:33;;;;;;;27.08;15.98;;;103.00;1715.20;;;;;;5013684;28;20033;-84
2022/03/02 10:37:13;;;;;;;22.80;11.32;;;102.80;1766.40;;;;;;5012747;28;20124;-87
2022/03/02 10:40:06;;;;;;;28.92;14.38;;;102.90;1715.20;;;;;;5014501;28;20065;-83
2022/03/02 10:42:40;;;;;;;18.98;12.32;;;102.80;1740.80;;;;;;5014708;28;20056;-86
2022/03/02 10:45:07;;;;;;;;;;;102.90;1740.80;;;;;;5014497;28;20052;-80
2022/03/02 10:47:41;;;;;;;19.98;10.85;;;102.90;1740.80;;;;;;5014189;28;19906;-82
2022/03/02 10:50:08;;;;;;;19.73;11.35;;;102.90;1689.60;;;;;;5014610;28;20057;-85
2022/03/02 10:52:37;;;;;;;20.30;10.88;;;102.90;1740.80;;;;;;5013439;28;20065;-86
2022/03/02 10:55:09;;;;;;;26.77;10.68;;;103.00;1689.60;;;;;;5014258;28;20489;-86
2022/03/02 10:57:34;;;;;;;14.93;9.43;;;102.90;1689.60;;;;;;5013287;28;20408;-85
2022/03/02 11:00:13;;;;;;;20.73;10.77;;;102.90;1715.20;;;;;;5014206;28;20172;-84
2022/03/02 11:02:42;;;;;;;27.02;15.02;;;103.30;1766.40;;;;;;5012786;28;20025;-82
2022/03/02 11:05:13;;;;;;;11.38;7.97;;;103.30;1689.60;;;;;;5012566;28;20113;-81
2022/03/02 11:07:40;;;;;;;20.73;12.77;;;103.20;1664.00;;;;;;5009594;28;20041;-85
2022/03/02 11:10:10;;;;;;;24.65;13.48;;;128.00;1689.60;;;;;;5014072;28;20021;-84
2022/03/02 11:12:44;;;;;;;17.77;9.98;;;128.20;1715.20;;;;;;5011878;28;20022;-81
2022/03/02 11:15:11;;;;;;;;;;;128.00;1689.60;;;;;;5013986;28;20025;-82
2022/03/02 11:18:00;;;;;;;16.00;9.50;;;103.30;1664.00;;;;;;5012447;28;20402;-78
2022/03/02 11:20:28;;;;;;;26.50;13.52;;;128.00;1740.80;;;;;;5013473;28;20136;-83
2022/03/02 11:23:05;;;;;;;17.20;9.35;;;103.20;1689.60;;;;;;5012887;28;20053;-80
2022/03/02 11:25:50;;;;;;;22.73;14.23;;;103.30;1664.00;;;;;;5013533;28;20025;-84
2022/03/02 11:28:18;;;;;;;18.15;12.50;;;128.30;1638.40;;;;;;5012964;28;20036;-80
2022/03/02 11:30:48;;;;;;;19.67;10.40;;;128.20;1664.00;;;;;;5012609;28;20133;-85
2022/03/02 11:33:15;;;;;;;15.85;8.48;;;128.00;1638.40;;;;;;5012766;28;20026;-86
2022/03/02 11:35:42;;;;;;;15.30;9.90;;;128.00;1612.80;;;;;;5012311;28;20026;-85
2022/03/02 11:38:08;;;;;;;17.42;10.07;;;128.20;1638.40;;;;;;5012292;28;20034;-81
2022/03/02 11:40:44;;;;;;;20.27;11.20;;;128.30;1638.40;;;;;;5012433;28;20044;-84
2022/03/02 11:43:25;;;;;;;20.85;12.07;;;;;;;;;;5000616;28;20085;-77
2022/03/02 11:45:58;;;;;;;24.33;12.38;;;;;;;;;;5013265;28;20482;-81
2022/03/02 11:48:26;;;;;;;37.83;18.13;;;;;;;;;;5011500;28;20014;-76
2022/03/02 11:51:02;;;;;;;22.15;13.13;;;;;;;;;;5012041;28;20407;-85
2022/03/02 11:53:32;;;;;;;18.92;11.02;;;;;;;;;;5011485;28;20481;-76
2022/03/02 11:55:59;;;;;;;20.67;12.88;;;;;;;;;;5012116;28;20022;-77
2022/03/02 11:58:26;;;;;;;15.80;11.30;;;;;;;;;;5011359;28;20436;-76
2022/03/02 12:00:52;;;;;;;17.88;14.07;;;;;;;;;;5012125;28;20389;-76
2022/03/02 12:03:18;;;;;;;18.40;11.15;;;;;;;;;;5011146;28;20026;-76
2022/03/02 12:05:45;;;;;;;14.88;9.13;;;;;;;;;;5012091;28;20128;-75
2022/03/02 12:08:12;;;;;;;19.38;10.35;;;;;;;;;;5010870;28;20080;-75
2022/03/02 12:10:40;;;;;;;28.00;13.02;;;;;;;;;;5010794;28;20029;-76
2022/03/02 12:13:06;;;;;;;14.88;10.18;;;;;;;;;;5007977;28;20018;-75
2022/03/02 12:15:48;;;;;;;16.40;10.52;;;;;;;;;;5010384;28;20457;-77
2022/03/02 12:18:16;;;;;;;19.00;10.00;;;;;;;;;;5010815;28;20036;-78
2022/03/02 12:21:08;;;;;;;21.65;10.05;;;;;;;;;;5012079;28;20044;-77
2022/03/02 12:23:35;;;;;;;19.52;7.80;;;;;;;;;;5010431;28;20049;-80
2022/03/02 12:26:04;;;;;;;15.88;7.70;;;;;;;;;;5011743;28;20140;-77